Sour Lake, TX

4:22 PM CST on December 21, 2014 (GMT -0600)
APRSWXNET Beaumont TX US | Change Station
CLOSE
Current Station
Personal Weather Station
Location: Beaumont, TX
Elevation: 22 ft
Nearby Weather Stations

Elev 22 ft 30.16 °N, 94.20 °W | Updated 39 minutes ago

Overcast
Overcast
56 °F
Feels Like 56 °F
N
0
Wind Variable Wind from ESE
Gusts 2.0 mph

Today
High -- | Low -- °F
--% Chance of Precip.
Yesterday
High -- | Low -- °F
Precip. -- in
7:09 AM 5:21 PM
Waning Crescent, 0% visible
Pressure 29.98 in
Visibility 10.0 miles
Clouds Scattered Clouds 10000 ft
Dew Point 52 °F
Humidity 85%
Rainfall 0.00 in
Snow Depth Not available.
UV 0 out of 12
Pollen 6.30 out of 12
Air Quality Not available.
Flu Activity Not available.
METAR KBMT 212215Z AUTO 00000KT 10SM SCT100 14/10 A2998 RMK AO2 T01360098

More Conditions Fewer Conditions

Pressure 29.98 in
Visibility 10.0 miles
Clouds Scattered Clouds 10000 ft
Dew Point 52 °F
Humidity 85%
Rainfall 0.00 in
Snow Depth Not available.
UV 0 out of 12
Pollen 6.30 out of 12
Air Quality Not available.
Flu Activity Not available.
METAR KBMT 212215Z AUTO 00000KT 10SM SCT100 14/10 A2998 RMK AO2 T01360098

More Conditions Fewer Conditions

10-Day Weather Forecast

Almanac

Astronomy

Dec. 21, 2014 Rise Set
Actual Time
Civil Twilight
Nautical Twilight
Astronomical Twilight
Moon
Length of Visible Light
Length of Day
Tomorrow will be .
, % of the Moon is Illuminated

Today's Extremes

State Highs State Lows

Community

WunderPhotos

Upload Photos

1,779,499 photos uploaded!

WunderBlogs® & News

Nearby

Air Quality

  Air Quality AQ Index Pollutant
Not available.

Snow Depth

Station Depth Elevation

Earthquake Activity

City Distance Mag. Time & Date
Minimum magnitude displayed is 2.5.

Coastal Water Temperatures

Place Temperature

Nearby Weather Stations